sensor_id;sensor_type;location;lat;lon;timestamp;temperature;humidity
72206;DHT22;60111;48.286;7.812;2023-04-01T00:01:04;9.60;72.60
72206;DHT22;60111;48.286;7.812;2023-04-01T00:03:37;9.50;72.40
72206;DHT22;60111;48.286;7.812;2023-04-01T00:06:14;9.60;72.80
72206;DHT22;60111;48.286;7.812;2023-04-01T00:08:47;9.50;73.20
72206;DHT22;60111;48.286;7.812;2023-04-01T00:11:20;9.40;72.40
72206;DHT22;60111;48.286;7.812;2023-04-01T00:13:53;9.40;72.90
72206;DHT22;60111;48.286;7.812;2023-04-01T00:16:26;9.40;72.90
72206;DHT22;60111;48.286;7.812;2023-04-01T00:18:59;9.40;72.40
72206;DHT22;60111;48.286;7.812;2023-04-01T00:21:32;9.30;72.10
72206;DHT22;60111;48.286;7.812;2023-04-01T00:24:05;9.30;71.90
72206;DHT22;60111;48.286;7.812;2023-04-01T00:26:38;9.30;71.70
72206;DHT22;60111;48.286;7.812;2023-04-01T00:29:11;9.30;72.10
72206;DHT22;60111;48.286;7.812;2023-04-01T00:31:43;9.30;71.90
72206;DHT22;60111;48.286;7.812;2023-04-01T00:34:16;9.20;71.80
72206;DHT22;60111;48.286;7.812;2023-04-01T00:36:49;9.20;72.10
72206;DHT22;60111;48.286;7.812;2023-04-01T00:39:21;9.20;72.80
72206;DHT22;60111;48.286;7.812;2023-04-01T00:41:54;9.20;73.70
72206;DHT22;60111;48.286;7.812;2023-04-01T00:44:31;9.10;73.90
72206;DHT22;60111;48.286;7.812;2023-04-01T00:47:04;9.20;74.60
72206;DHT22;60111;48.286;7.812;2023-04-01T00:49:42;9.10;75.00
72206;DHT22;60111;48.286;7.812;2023-04-01T00:52:17;9.10;76.10
72206;DHT22;60111;48.286;7.812;2023-04-01T00:54:54;9.00;76.40
72206;DHT22;60111;48.286;7.812;2023-04-01T00:57:32;8.90;77.00
72206;DHT22;60111;48.286;7.812;2023-04-01T01:00:08;8.90;77.20
72206;DHT22;60111;48.286;7.812;2023-04-01T01:02:42;8.80;77.80
72206;DHT22;60111;48.286;7.812;2023-04-01T01:05:16;8.80;79.00
72206;DHT22;60111;48.286;7.812;2023-04-01T01:07:59;8.70;79.40
72206;DHT22;60111;48.286;7.812;2023-04-01T01:10:37;8.70;79.60
72206;DHT22;60111;48.286;7.812;2023-04-01T01:13:24;8.70;80.60
72206;DHT22;60111;48.286;7.812;2023-04-01T01:19:24;8.60;81.20
72206;DHT22;60111;48.286;7.812;2023-04-01T01:22:03;8.60;81.90
72206;DHT22;60111;48.286;7.812;2023-04-01T01:27:32;8.50;82.80
72206;DHT22;60111;48.286;7.812;2023-04-01T01:30:26;8.40;83.40
72206;DHT22;60111;48.286;7.812;2023-04-01T01:33:22;8.40;83.10
72206;DHT22;60111;48.286;7.812;2023-04-01T01:35:51;8.40;83.20
72206;DHT22;60111;48.286;7.812;2023-04-01T01:38:27;8.40;83.30
72206;DHT22;60111;48.286;7.812;2023-04-01T01:41:02;8.50;83.30
72206;DHT22;60111;48.286;7.812;2023-04-01T01:43:41;8.50;83.30
72206;DHT22;60111;48.286;7.812;2023-04-01T01:46:17;8.50;83.40
72206;DHT22;60111;48.286;7.812;2023-04-01T01:48:51;8.50;83.30
72206;DHT22;60111;48.286;7.812;2023-04-01T01:51:24;8.50;83.50
72206;DHT22;60111;48.286;7.812;2023-04-01T01:53:58;8.50;83.70
72206;DHT22;60111;48.286;7.812;2023-04-01T01:56:31;8.50;84.00
72206;DHT22;60111;48.286;7.812;2023-04-01T01:59:07;8.50;84.00
72206;DHT22;60111;48.286;7.812;2023-04-01T02:01:42;8.40;84.30
72206;DHT22;60111;48.286;7.812;2023-04-01T02:04:18;8.40;84.40
72206;DHT22;60111;48.286;7.812;2023-04-01T02:07:02;8.40;84.40
72206;DHT22;60111;48.286;7.812;2023-04-01T02:09:33;8.30;84.40
72206;DHT22;60111;48.286;7.812;2023-04-01T02:12:11;8.40;84.50
72206;DHT22;60111;48.286;7.812;2023-04-01T02:14:48;8.30;84.20
72206;DHT22;60111;48.286;7.812;2023-04-01T02:17:23;8.30;84.50
72206;DHT22;60111;48.286;7.812;2023-04-01T02:20:03;8.30;84.20
72206;DHT22;60111;48.286;7.812;2023-04-01T02:22:38;8.40;84.30
72206;DHT22;60111;48.286;7.812;2023-04-01T02:25:16;8.30;84.50
72206;DHT22;60111;48.286;7.812;2023-04-01T02:27:49;8.30;84.50
72206;DHT22;60111;48.286;7.812;2023-04-01T02:30:22;8.40;84.40
72206;DHT22;60111;48.286;7.812;2023-04-01T02:32:56;8.40;84.00
72206;DHT22;60111;48.286;7.812;2023-04-01T02:35:30;8.40;84.10
72206;DHT22;60111;48.286;7.812;2023-04-01T02:38:05;8.50;83.80
72206;DHT22;60111;48.286;7.812;2023-04-01T02:40:43;8.50;83.50
72206;DHT22;60111;48.286;7.812;2023-04-01T02:43:16;8.60;83.20
72206;DHT22;60111;48.286;7.812;2023-04-01T02:45:51;8.60;83.00
72206;DHT22;60111;48.286;7.812;2023-04-01T02:48:24;8.70;82.70
72206;DHT22;60111;48.286;7.812;2023-04-01T02:50:56;8.70;82.80
72206;DHT22;60111;48.286;7.812;2023-04-01T02:53:29;8.80;82.20
72206;DHT22;60111;48.286;7.812;2023-04-01T02:56:01;8.80;81.70
72206;DHT22;60111;48.286;7.812;2023-04-01T02:58:34;8.90;82.00
72206;DHT22;60111;48.286;7.812;2023-04-01T03:01:07;8.90;81.00
72206;DHT22;60111;48.286;7.812;2023-04-01T03:03:39;8.90;80.90
72206;DHT22;60111;48.286;7.812;2023-04-01T03:06:15;9.00;80.60
72206;DHT22;60111;48.286;7.812;2023-04-01T03:08:48;9.00;80.60
72206;DHT22;60111;48.286;7.812;2023-04-01T03:11:20;9.00;79.50
72206;DHT22;60111;48.286;7.812;2023-04-01T03:13:53;9.00;79.40
72206;DHT22;60111;48.286;7.812;2023-04-01T03:16:26;9.00;79.20
72206;DHT22;60111;48.286;7.812;2023-04-01T03:18:58;9.00;78.90
72206;DHT22;60111;48.286;7.812;2023-04-01T03:21:32;9.00;78.50
72206;DHT22;60111;48.286;7.812;2023-04-01T03:24:05;9.00;77.90
72206;DHT22;60111;48.286;7.812;2023-04-01T03:26:39;9.00;78.20
72206;DHT22;60111;48.286;7.812;2023-04-01T03:29:11;9.00;76.90
72206;DHT22;60111;48.286;7.812;2023-04-01T03:31:45;9.00;76.70
72206;DHT22;60111;48.286;7.812;2023-04-01T03:34:18;9.00;75.70
72206;DHT22;60111;48.286;7.812;2023-04-01T03:36:51;8.90;75.20
72206;DHT22;60111;48.286;7.812;2023-04-01T03:39:24;9.00;73.80
72206;DHT22;60111;48.286;7.812;2023-04-01T03:41:57;9.00;73.50
72206;DHT22;60111;48.286;7.812;2023-04-01T03:44:33;9.00;73.30
72206;DHT22;60111;48.286;7.812;2023-04-01T03:47:06;9.00;73.50
72206;DHT22;60111;48.286;7.812;2023-04-01T03:49:40;8.90;74.20
72206;DHT22;60111;48.286;7.812;2023-04-01T03:52:13;8.90;74.70
72206;DHT22;60111;48.286;7.812;2023-04-01T03:54:45;8.90;75.30
72206;DHT22;60111;48.286;7.812;2023-04-01T03:57:18;8.80;75.60
72206;DHT22;60111;48.286;7.812;2023-04-01T03:59:51;8.60;75.80
72206;DHT22;60111;48.286;7.812;2023-04-01T04:02:26;8.60;76.20
72206;DHT22;60111;48.286;7.812;2023-04-01T04:05:02;8.60;77.20
72206;DHT22;60111;48.286;7.812;2023-04-01T04:07:35;8.50;78.50
72206;DHT22;60111;48.286;7.812;2023-04-01T04:10:08;8.50;79.20
72206;DHT22;60111;48.286;7.812;2023-04-01T04:12:40;8.50;80.60
72206;DHT22;60111;48.286;7.812;2023-04-01T04:15:13;8.40;81.40
72206;DHT22;60111;48.286;7.812;2023-04-01T04:17:46;8.40;81.70
72206;DHT22;60111;48.286;7.812;2023-04-01T04:20:19;8.40;81.80
72206;DHT22;60111;48.286;7.812;2023-04-01T04:22:52;8.40;81.90
72206;DHT22;60111;48.286;7.812;2023-04-01T04:25:24;8.40;81.30
72206;DHT22;60111;48.286;7.812;2023-04-01T04:27:57;8.40;80.30
72206;DHT22;60111;48.286;7.812;2023-04-01T04:30:29;8.40;79.10
72206;DHT22;60111;48.286;7.812;2023-04-01T04:33:02;8.50;78.50
72206;DHT22;60111;48.286;7.812;2023-04-01T04:35:35;8.50;77.20
72206;DHT22;60111;48.286;7.812;2023-04-01T04:38:07;8.50;76.50
72206;DHT22;60111;48.286;7.812;2023-04-01T04:40:41;8.50;76.70
72206;DHT22;60111;48.286;7.812;2023-04-01T04:43:14;8.50;76.90
72206;DHT22;60111;48.286;7.812;2023-04-01T04:45:48;8.50;77.50
72206;DHT22;60111;48.286;7.812;2023-04-01T04:48:21;8.50;77.40
72206;DHT22;60111;48.286;7.812;2023-04-01T04:50:53;8.50;77.40
72206;DHT22;60111;48.286;7.812;2023-04-01T04:53:26;8.50;77.20
72206;DHT22;60111;48.286;7.812;2023-04-01T04:55:59;8.50;77.80
72206;DHT22;60111;48.286;7.812;2023-04-01T04:58:31;8.60;77.60
72206;DHT22;60111;48.286;7.812;2023-04-01T05:01:13;8.60;77.70
72206;DHT22;60111;48.286;7.812;2023-04-01T05:04:05;8.70;77.50
72206;DHT22;60111;48.286;7.812;2023-04-01T05:06:38;8.70;77.90
72206;DHT22;60111;48.286;7.812;2023-04-01T05:09:10;8.70;78.00
72206;DHT22;60111;48.286;7.812;2023-04-01T05:11:43;8.70;77.90
72206;DHT22;60111;48.286;7.812;2023-04-01T05:14:16;8.70;77.80
72206;DHT22;60111;48.286;7.812;2023-04-01T05:16:49;8.70;77.70
72206;DHT22;60111;48.286;7.812;2023-04-01T05:19:22;8.70;77.50
72206;DHT22;60111;48.286;7.812;2023-04-01T05:21:54;8.70;77.70
72206;DHT22;60111;48.286;7.812;2023-04-01T05:24:27;8.70;78.10
72206;DHT22;60111;48.286;7.812;2023-04-01T05:26:59;8.70;78.50
72206;DHT22;60111;48.286;7.812;2023-04-01T05:29:33;8.70;78.70
72206;DHT22;60111;48.286;7.812;2023-04-01T05:32:06;8.80;79.00
72206;DHT22;60111;48.286;7.812;2023-04-01T05:34:39;8.70;79.10
72206;DHT22;60111;48.286;7.812;2023-04-01T05:37:11;8.80;79.10
72206;DHT22;60111;48.286;7.812;2023-04-01T05:39:44;8.90;79.00
72206;DHT22;60111;48.286;7.812;2023-04-01T05:42:16;8.80;78.90
72206;DHT22;60111;48.286;7.812;2023-04-01T05:44:49;8.80;78.90
72206;DHT22;60111;48.286;7.812;2023-04-01T05:47:22;8.80;79.10
72206;DHT22;60111;48.286;7.812;2023-04-01T05:49:55;8.90;78.80
72206;DHT22;60111;48.286;7.812;2023-04-01T05:52:27;8.80;78.90
72206;DHT22;60111;48.286;7.812;2023-04-01T05:55:00;8.90;78.90
72206;DHT22;60111;48.286;7.812;2023-04-01T05:57:32;8.90;78.90
72206;DHT22;60111;48.286;7.812;2023-04-01T06:00:06;8.90;78.50
72206;DHT22;60111;48.286;7.812;2023-04-01T06:02:39;8.90;78.70
72206;DHT22;60111;48.286;7.812;2023-04-01T06:05:24;8.90;78.60
72206;DHT22;60111;48.286;7.812;2023-04-01T06:07:58;8.80;79.10
72206;DHT22;60111;48.286;7.812;2023-04-01T06:19:15;8.90;78.40
72206;DHT22;60111;48.286;7.812;2023-04-01T06:22:12;8.90;78.30
72206;DHT22;60111;48.286;7.812;2023-04-01T06:24:53;8.90;78.30
72206;DHT22;60111;48.286;7.812;2023-04-01T06:27:53;9.10;78.20
72206;DHT22;60111;48.286;7.812;2023-04-01T06:30:38;9.10;78.30
72206;DHT22;60111;48.286;7.812;2023-04-01T06:36:35;9.10;78.00
72206;DHT22;60111;48.286;7.812;2023-04-01T06:42:06;9.10;77.80
72206;DHT22;60111;48.286;7.812;2023-04-01T06:44:53;9.20;77.90
72206;DHT22;60111;48.286;7.812;2023-04-01T06:55:34;9.20;77.20
72206;DHT22;60111;48.286;7.812;2023-04-01T07:01:00;9.30;77.70
72206;DHT22;60111;48.286;7.812;2023-04-01T07:03:35;9.40;77.30
72206;DHT22;60111;48.286;7.812;2023-04-01T07:06:14;9.40;77.00
72206;DHT22;60111;48.286;7.812;2023-04-01T07:08:47;9.40;76.60
72206;DHT22;60111;48.286;7.812;2023-04-01T07:11:31;9.50;76.50
72206;DHT22;60111;48.286;7.812;2023-04-01T07:14:06;9.50;76.30
72206;DHT22;60111;48.286;7.812;2023-04-01T07:16:48;9.50;76.00
72206;DHT22;60111;48.286;7.812;2023-04-01T07:19:26;9.50;76.30
72206;DHT22;60111;48.286;7.812;2023-04-01T07:22:09;9.50;76.10
72206;DHT22;60111;48.286;7.812;2023-04-01T07:24:44;9.50;75.50
72206;DHT22;60111;48.286;7.812;2023-04-01T07:27:17;9.50;75.60
72206;DHT22;60111;48.286;7.812;2023-04-01T07:29:51;9.60;75.80
72206;DHT22;60111;48.286;7.812;2023-04-01T07:32:31;9.60;74.90
72206;DHT22;60111;48.286;7.812;2023-04-01T07:35:18;9.60;75.20
72206;DHT22;60111;48.286;7.812;2023-04-01T07:38:08;9.60;74.90
72206;DHT22;60111;48.286;7.812;2023-04-01T07:41:12;9.70;75.40
72206;DHT22;60111;48.286;7.812;2023-04-01T07:43:49;9.60;75.90
72206;DHT22;60111;48.286;7.812;2023-04-01T07:46:31;9.70;76.60
72206;DHT22;60111;48.286;7.812;2023-04-01T07:51:56;9.70;76.40
72206;DHT22;60111;48.286;7.812;2023-04-01T07:54:49;9.70;77.10
72206;DHT22;60111;48.286;7.812;2023-04-01T07:57:29;9.70;77.10
72206;DHT22;60111;48.286;7.812;2023-04-01T08:08:05;9.70;77.60
72206;DHT22;60111;48.286;7.812;2023-04-01T08:10:43;9.70;77.20
72206;DHT22;60111;48.286;7.812;2023-04-01T08:16:12;9.80;78.00
72206;DHT22;60111;48.286;7.812;2023-04-01T08:21:24;9.80;77.90
72206;DHT22;60111;48.286;7.812;2023-04-01T08:24:00;9.80;78.10
72206;DHT22;60111;48.286;7.812;2023-04-01T08:26:35;9.80;77.60
72206;DHT22;60111;48.286;7.812;2023-04-01T08:29:20;9.80;77.70
72206;DHT22;60111;48.286;7.812;2023-04-01T08:31:58;9.80;77.70
72206;DHT22;60111;48.286;7.812;2023-04-01T08:34:39;9.80;78.50
72206;DHT22;60111;48.286;7.812;2023-04-01T08:37:15;9.70;77.80
72206;DHT22;60111;48.286;7.812;2023-04-01T08:39:51;9.70;77.70
72206;DHT22;60111;48.286;7.812;2023-04-01T08:42:41;9.70;77.60
72206;DHT22;60111;48.286;7.812;2023-04-01T08:45:18;9.70;77.50
72206;DHT22;60111;48.286;7.812;2023-04-01T08:48:17;9.70;78.80
72206;DHT22;60111;48.286;7.812;2023-04-01T09:02:21;9.60;79.40
72206;DHT22;60111;48.286;7.812;2023-04-01T09:10:47;9.60;80.40
72206;DHT22;60111;48.286;7.812;2023-04-01T09:19:33;9.60;80.00
72206;DHT22;60111;48.286;7.812;2023-04-01T09:25:30;9.60;80.40
72206;DHT22;60111;48.286;7.812;2023-04-01T09:28:20;9.60;80.10
72206;DHT22;60111;48.286;7.812;2023-04-01T09:34:05;9.70;79.90
72206;DHT22;60111;48.286;7.812;2023-04-01T09:39:44;9.70;80.90
72206;DHT22;60111;48.286;7.812;2023-04-01T09:42:33;9.70;80.90
72206;DHT22;60111;48.286;7.812;2023-04-01T09:53:19;9.70;81.70
72206;DHT22;60111;48.286;7.812;2023-04-01T09:59:07;9.70;82.30
72206;DHT22;60111;48.286;7.812;2023-04-01T10:22:09;9.90;80.80
72206;DHT22;60111;48.286;7.812;2023-04-01T10:30:23;10.00;80.40
72206;DHT22;60111;48.286;7.812;2023-04-01T10:38:55;10.10;80.10
72206;DHT22;60111;48.286;7.812;2023-04-01T10:44:27;10.10;79.80
72206;DHT22;60111;48.286;7.812;2023-04-01T10:53:03;10.00;80.40
72206;DHT22;60111;48.286;7.812;2023-04-01T11:01:45;10.00;80.20
72206;DHT22;60111;48.286;7.812;2023-04-01T11:13:10;10.00;79.10
72206;DHT22;60111;48.286;7.812;2023-04-01T11:25:09;9.90;79.60
72206;DHT22;60111;48.286;7.812;2023-04-01T11:33:53;10.10;79.40
72206;DHT22;60111;48.286;7.812;2023-04-01T11:36:28;10.10;79.40
72206;DHT22;60111;48.286;7.812;2023-04-01T11:42:01;10.10;76.80
72206;DHT22;60111;48.286;7.812;2023-04-01T11:44:31;10.10;76.90
72206;DHT22;60111;48.286;7.812;2023-04-01T11:47:37;10.10;77.40
72206;DHT22;60111;48.286;7.812;2023-04-01T11:50:11;10.20;77.30
72206;DHT22;60111;48.286;7.812;2023-04-01T11:55:39;10.30;76.60
72206;DHT22;60111;48.286;7.812;2023-04-01T11:58:15;10.30;76.60
72206;DHT22;60111;48.286;7.812;2023-04-01T12:09:44;10.50;75.60
72206;DHT22;60111;48.286;7.812;2023-04-01T12:12:17;10.50;75.10
72206;DHT22;60111;48.286;7.812;2023-04-01T12:18:37;10.50;72.80
72206;DHT22;60111;48.286;7.812;2023-04-01T12:26:47;10.60;73.20
72206;DHT22;60111;48.286;7.812;2023-04-01T12:29:34;10.50;71.90
72206;DHT22;60111;48.286;7.812;2023-04-01T13:03:18;10.80;72.40
72206;DHT22;60111;48.286;7.812;2023-04-01T13:06:17;10.80;71.50
72206;DHT22;60111;48.286;7.812;2023-04-01T13:09:00;10.80;72.80
72206;DHT22;60111;48.286;7.812;2023-04-01T13:11:38;10.90;71.40
72206;DHT22;60111;48.286;7.812;2023-04-01T13:23:19;10.90;72.70
72206;DHT22;60111;48.286;7.812;2023-04-01T13:26:09;11.00;73.80
72206;DHT22;60111;48.286;7.812;2023-04-01T13:28:51;11.10;73.40
72206;DHT22;60111;48.286;7.812;2023-04-01T13:31:33;11.10;72.00
72206;DHT22;60111;48.286;7.812;2023-04-01T13:34:13;11.20;73.00
72206;DHT22;60111;48.286;7.812;2023-04-01T13:42:17;11.10;72.60
72206;DHT22;60111;48.286;7.812;2023-04-01T13:45:01;11.10;71.90
72206;DHT22;60111;48.286;7.812;2023-04-01T13:47:50;11.20;72.40
72206;DHT22;60111;48.286;7.812;2023-04-01T13:56:04;11.10;74.10
72206;DHT22;60111;48.286;7.812;2023-04-01T14:13:44;11.00;73.50
72206;DHT22;60111;48.286;7.812;2023-04-01T14:19:22;11.10;73.30
72206;DHT22;60111;48.286;7.812;2023-04-01T14:33:53;11.20;73.50
72206;DHT22;60111;48.286;7.812;2023-04-01T14:37:25;11.20;73.50
72206;DHT22;60111;48.286;7.812;2023-04-01T14:42:30;11.20;70.50
72206;DHT22;60111;48.286;7.812;2023-04-01T14:45:20;11.20;70.40
72206;DHT22;60111;48.286;7.812;2023-04-01T14:48:05;11.30;71.10
72206;DHT22;60111;48.286;7.812;2023-04-01T14:50:45;11.30;71.80
72206;DHT22;60111;48.286;7.812;2023-04-01T14:53:26;11.30;71.60
72206;DHT22;60111;48.286;7.812;2023-04-01T14:56:00;11.40;72.40
72206;DHT22;60111;48.286;7.812;2023-04-01T14:58:50;11.40;72.10
72206;DHT22;60111;48.286;7.812;2023-04-01T15:04:28;11.40;70.00
72206;DHT22;60111;48.286;7.812;2023-04-01T15:07:42;11.50;68.30
72206;DHT22;60111;48.286;7.812;2023-04-01T15:15:55;11.60;66.90
72206;DHT22;60111;48.286;7.812;2023-04-01T15:21:27;11.60;67.30
72206;DHT22;60111;48.286;7.812;2023-04-01T15:27:28;11.50;65.50
72206;DHT22;60111;48.286;7.812;2023-04-01T15:33:11;11.60;64.70
72206;DHT22;60111;48.286;7.812;2023-04-01T15:36:00;11.60;65.30
72206;DHT22;60111;48.286;7.812;2023-04-01T15:38:51;11.60;66.60
72206;DHT22;60111;48.286;7.812;2023-04-01T15:41:46;11.60;67.30
72206;DHT22;60111;48.286;7.812;2023-04-01T15:47:24;11.60;65.80
72206;DHT22;60111;48.286;7.812;2023-04-01T15:49:50;11.60;64.90
72206;DHT22;60111;48.286;7.812;2023-04-01T15:55:24;11.70;64.50
72206;DHT22;60111;48.286;7.812;2023-04-01T16:00:53;11.60;68.70
72206;DHT22;60111;48.286;7.812;2023-04-01T16:03:54;11.60;70.10
72206;DHT22;60111;48.286;7.812;2023-04-01T16:06:48;11.50;70.70
72206;DHT22;60111;48.286;7.812;2023-04-01T16:17:44;11.40;72.70
72206;DHT22;60111;48.286;7.812;2023-04-01T16:20:17;11.30;72.90
72206;DHT22;60111;48.286;7.812;2023-04-01T16:23:00;11.10;73.20
72206;DHT22;60111;48.286;7.812;2023-04-01T16:25:41;11.00;74.50
72206;DHT22;60111;48.286;7.812;2023-04-01T16:31:23;10.90;74.40
72206;DHT22;60111;48.286;7.812;2023-04-01T16:36:59;10.90;73.90
72206;DHT22;60111;48.286;7.812;2023-04-01T16:48:33;10.70;74.40
72206;DHT22;60111;48.286;7.812;2023-04-01T16:50:23;10.70;74.30
72206;DHT22;60111;48.286;7.812;2023-04-01T16:53:17;10.70;74.20
72206;DHT22;60111;48.286;7.812;2023-04-01T16:55:55;10.70;73.60
72206;DHT22;60111;48.286;7.812;2023-04-01T17:01:28;10.70;73.70
72206;DHT22;60111;48.286;7.812;2023-04-01T17:04:04;10.70;73.90
72206;DHT22;60111;48.286;7.812;2023-04-01T17:06:42;10.70;73.50
72206;DHT22;60111;48.286;7.812;2023-04-01T17:14:46;10.70;73.10
72206;DHT22;60111;48.286;7.812;2023-04-01T17:17:38;10.70;73.40
72206;DHT22;60111;48.286;7.812;2023-04-01T17:31:46;10.70;71.30
72206;DHT22;60111;48.286;7.812;2023-04-01T17:49:02;10.80;72.20
72206;DHT22;60111;48.286;7.812;2023-04-01T17:51:43;10.80;72.50
72206;DHT22;60111;48.286;7.812;2023-04-01T17:54:33;10.70;73.80
72206;DHT22;60111;48.286;7.812;2023-04-01T18:03:13;10.60;74.60
72206;DHT22;60111;48.286;7.812;2023-04-01T18:11:32;10.50;74.30
72206;DHT22;60111;48.286;7.812;2023-04-01T18:22:29;10.60;72.90
72206;DHT22;60111;48.286;7.812;2023-04-01T18:27:44;10.60;73.20
72206;DHT22;60111;48.286;7.812;2023-04-01T18:30:30;10.60;73.50
72206;DHT22;60111;48.286;7.812;2023-04-01T18:33:23;10.60;73.50
72206;DHT22;60111;48.286;7.812;2023-04-01T18:39:03;10.50;73.10
72206;DHT22;60111;48.286;7.812;2023-04-01T18:41:28;10.50;73.00
72206;DHT22;60111;48.286;7.812;2023-04-01T18:47:07;10.40;72.50
72206;DHT22;60111;48.286;7.812;2023-04-01T18:52:46;10.30;73.30
72206;DHT22;60111;48.286;7.812;2023-04-01T18:55:42;10.30;73.80
72206;DHT22;60111;48.286;7.812;2023-04-01T18:58:32;10.30;73.90
72206;DHT22;60111;48.286;7.812;2023-04-01T19:04:30;10.20;73.90
72206;DHT22;60111;48.286;7.812;2023-04-01T19:07:21;10.20;73.90
72206;DHT22;60111;48.286;7.812;2023-04-01T19:09:44;10.20;73.70
72206;DHT22;60111;48.286;7.812;2023-04-01T19:12:34;10.10;73.40
72206;DHT22;60111;48.286;7.812;2023-04-01T19:15:37;10.00;74.10
72206;DHT22;60111;48.286;7.812;2023-04-01T19:21:14;10.00;72.70
72206;DHT22;60111;48.286;7.812;2023-04-01T19:26:34;10.00;71.60
72206;DHT22;60111;48.286;7.812;2023-04-01T19:32:14;10.10;70.90
72206;DHT22;60111;48.286;7.812;2023-04-01T19:35:16;10.00;70.90
72206;DHT22;60111;48.286;7.812;2023-04-01T19:40:41;10.00;71.00
72206;DHT22;60111;48.286;7.812;2023-04-01T19:43:26;9.90;71.30
72206;DHT22;60111;48.286;7.812;2023-04-01T19:49:12;9.90;71.60
72206;DHT22;60111;48.286;7.812;2023-04-01T19:57:52;10.00;71.20
72206;DHT22;60111;48.286;7.812;2023-04-01T20:00:34;10.00;71.10
72206;DHT22;60111;48.286;7.812;2023-04-01T20:14:53;10.00;71.60
72206;DHT22;60111;48.286;7.812;2023-04-01T20:16:51;10.10;71.60
72206;DHT22;60111;48.286;7.812;2023-04-01T20:19:28;10.00;72.70
72206;DHT22;60111;48.286;7.812;2023-04-01T20:22:05;10.00;73.50
72206;DHT22;60111;48.286;7.812;2023-04-01T20:24:45;9.90;73.90
72206;DHT22;60111;48.286;7.812;2023-04-01T20:27:20;10.00;73.50
72206;DHT22;60111;48.286;7.812;2023-04-01T20:39:01;10.00;73.90
72206;DHT22;60111;48.286;7.812;2023-04-01T20:41:45;9.90;74.50
72206;DHT22;60111;48.286;7.812;2023-04-01T20:44:20;9.90;75.30
72206;DHT22;60111;48.286;7.812;2023-04-01T20:47:15;9.90;75.80
72206;DHT22;60111;48.286;7.812;2023-04-01T20:49:57;9.90;75.90
72206;DHT22;60111;48.286;7.812;2023-04-01T20:55:49;9.90;75.40
72206;DHT22;60111;48.286;7.812;2023-04-01T21:01:13;9.80;76.20
72206;DHT22;60111;48.286;7.812;2023-04-01T21:09:50;9.70;76.80
72206;DHT22;60111;48.286;7.812;2023-04-01T21:21:27;9.50;77.50
72206;DHT22;60111;48.286;7.812;2023-04-01T21:24:28;9.40;77.90
72206;DHT22;60111;48.286;7.812;2023-04-01T21:27:08;9.40;77.70
72206;DHT22;60111;48.286;7.812;2023-04-01T21:38:42;9.20;78.10
72206;DHT22;60111;48.286;7.812;2023-04-01T21:56:16;9.00;78.60
72206;DHT22;60111;48.286;7.812;2023-04-01T21:59:18;9.00;78.90
72206;DHT22;60111;48.286;7.812;2023-04-01T22:02:17;9.00;79.20
72206;DHT22;60111;48.286;7.812;2023-04-01T22:05:09;9.00;79.00
72206;DHT22;60111;48.286;7.812;2023-04-01T22:13:53;9.00;77.80
72206;DHT22;60111;48.286;7.812;2023-04-01T22:16:27;9.00;77.70
72206;DHT22;60111;48.286;7.812;2023-04-01T22:19:09;9.00;78.50
72206;DHT22;60111;48.286;7.812;2023-04-01T22:22:00;8.90;79.00
72206;DHT22;60111;48.286;7.812;2023-04-01T22:30:22;8.80;79.70
72206;DHT22;60111;48.286;7.812;2023-04-01T22:36:02;8.80;79.90
72206;DHT22;60111;48.286;7.812;2023-04-01T22:44:00;9.10;78.40
72206;DHT22;60111;48.286;7.812;2023-04-01T22:46:46;9.10;77.90
72206;DHT22;60111;48.286;7.812;2023-04-01T22:49:26;9.10;78.60
72206;DHT22;60111;48.286;7.812;2023-04-01T22:52:03;9.10;78.00
72206;DHT22;60111;48.286;7.812;2023-04-01T22:54:40;9.10;78.50
72206;DHT22;60111;48.286;7.812;2023-04-01T22:57:28;9.00;78.90
72206;DHT22;60111;48.286;7.812;2023-04-01T23:00:05;8.90;79.30
72206;DHT22;60111;48.286;7.812;2023-04-01T23:03:19;8.90;79.60
72206;DHT22;60111;48.286;7.812;2023-04-01T23:05:09;8.90;79.50
72206;DHT22;60111;48.286;7.812;2023-04-01T23:10:51;8.80;80.10
72206;DHT22;60111;48.286;7.812;2023-04-01T23:13:36;8.80;80.50
72206;DHT22;60111;48.286;7.812;2023-04-01T23:16:06;8.80;80.50
72206;DHT22;60111;48.286;7.812;2023-04-01T23:18:57;8.80;80.80
72206;DHT22;60111;48.286;7.812;2023-04-01T23:21:35;8.80;80.70
72206;DHT22;60111;48.286;7.812;2023-04-01T23:27:05;8.90;80.20
72206;DHT22;60111;48.286;7.812;2023-04-01T23:29:37;8.90;80.40
72206;DHT22;60111;48.286;7.812;2023-04-01T23:32:16;8.90;80.10
72206;DHT22;60111;48.286;7.812;2023-04-01T23:34:59;8.90;80.20
72206;DHT22;60111;48.286;7.812;2023-04-01T23:37:32;8.90;79.90
72206;DHT22;60111;48.286;7.812;2023-04-01T23:40:10;8.90;79.70
72206;DHT22;60111;48.286;7.812;2023-04-01T23:42:41;8.90;79.90
72206;DHT22;60111;48.286;7.812;2023-04-01T23:45:16;8.90;79.90
72206;DHT22;60111;48.286;7.812;2023-04-01T23:47:52;9.00;79.60
72206;DHT22;60111;48.286;7.812;2023-04-01T23:50:26;9.00;79.30
72206;DHT22;60111;48.286;7.812;2023-04-01T23:53:09;9.00;79.30
72206;DHT22;60111;48.286;7.812;2023-04-01T23:55:33;8.90;79.50
